Time;durP1;ratioP1;P1;durP2;ratioP2;P2;SDS_P1;SDS_P2;PMS_P1;PMS_P2;Temp;Humidity;BMP_temperature;BMP_pressure;BME280_temperature;BME280_humidity;BME280_pressure;Samples;Min_cycle;Max_cycle;Signal;HPM_P1;HPM_P2
2023/08/17 00:03:15;;;;;;;20.60;17.20;;;;;;;-145.68;100.00;73447.81;10450192;28;20250;-74
2023/08/17 00:08:16;;;;;;;21.30;16.52;;;;;;;-145.68;100.00;73439.84;10450041;28;20184;-74
2023/08/17 00:13:16;;;;;;;21.85;17.40;;;;;;;-145.68;100.00;73459.81;10449719;28;20646;-74
2023/08/17 00:18:16;;;;;;;25.35;19.02;;;;;;;-145.68;100.00;73435.84;10449392;28;20612;-75
2023/08/17 00:23:17;;;;;;;21.90;17.58;;;;;;;-145.68;100.00;73443.84;10449090;28;20233;-74
2023/08/17 00:28:17;;;;;;;22.02;17.42;;;;;;;-145.68;100.00;73455.81;10449729;28;20191;-74
2023/08/17 00:33:18;;;;;;;19.20;16.40;;;;;;;-145.68;100.00;73459.81;10449270;28;20219;-74
2023/08/17 00:38:18;;;;;;;21.65;16.88;;;;;;;-145.68;100.00;73445.81;10447765;28;20227;-74
2023/08/17 00:43:19;;;;;;;20.75;17.45;;;;;;;-145.68;100.00;73457.81;10449272;28;20199;-74
2023/08/17 00:48:19;;;;;;;23.40;19.35;;;;;;;-145.68;100.00;73481.81;10449301;28;20272;-75
2023/08/17 00:53:22;;;;;;;25.48;18.83;;;;;;;-145.68;100.00;73483.81;10447191;28;20220;-75
2023/08/17 00:58:24;;;;;;;20.02;17.02;;;;;;;-145.68;100.00;73485.81;10431800;28;20192;-74
2023/08/17 01:03:27;;;;;;;25.23;19.20;;;;;;;-145.68;100.00;73507.78;10447414;28;20188;-74
2023/08/17 01:08:29;;;;;;;23.25;19.25;;;;;;;-145.68;100.00;73503.78;10446960;28;20212;-74
2023/08/17 01:14:15;;;;;;;21.65;17.77;;;;;;;-145.68;100.00;73511.78;10448417;28;20208;-75
2023/08/17 01:19:24;;;;;;;18.35;15.50;;;;;;;-145.68;100.00;73527.78;10346090;28;20215;-75
2023/08/17 01:24:25;;;;;;;16.55;14.77;;;;;;;-145.68;100.00;73541.78;10446490;28;20289;-75
2023/08/17 01:29:26;;;;;;;19.27;15.27;;;;;;;-145.68;100.00;73533.78;10449832;28;20279;-74
2023/08/17 01:34:27;;;;;;;23.08;16.05;;;;;;;-145.68;100.00;73549.75;10437442;28;20584;-75
2023/08/17 01:39:37;;;;;;;22.95;15.98;;;;;;;-145.68;100.00;73557.75;10438144;28;20202;-74
2023/08/17 01:44:38;;;;;;;17.80;15.82;;;;;;;-145.68;100.00;73563.75;10454144;28;20183;-75
2023/08/17 01:49:39;;;;;;;22.15;16.10;;;;;;;-145.68;100.00;73585.75;10455343;28;20225;-74
2023/08/17 01:54:39;;;;;;;24.38;17.40;;;;;;;-145.68;100.00;73585.75;10453735;28;20211;-74
2023/08/17 01:59:40;;;;;;;20.40;15.20;;;;;;;-145.68;100.00;73567.75;10455563;28;20188;-74
2023/08/17 02:04:40;;;;;;;27.58;18.38;;;;;;;-145.68;100.00;73593.75;10452963;28;20180;-74
2023/08/17 02:09:43;;;;;;;18.83;16.73;;;;;;;-145.68;100.00;73583.75;10437243;28;20297;-74
2023/08/17 02:14:43;;;;;;;22.80;18.55;;;;;;;-145.68;100.00;73607.72;10454248;28;20228;-73
2023/08/17 02:19:43;;;;;;;24.15;17.77;;;;;;;-145.68;100.00;73607.72;10454487;28;20253;-74
2023/08/17 02:24:46;;;;;;;21.92;16.63;;;;;;;-145.68;100.00;73627.72;10452378;28;20249;-74
2023/08/17 02:29:46;;;;;;;18.38;14.70;;;;;;;-145.68;100.00;73619.72;10453420;28;20184;-74
2023/08/17 02:34:47;;;;;;;18.52;14.13;;;;;;;-145.68;100.00;73629.72;10452627;28;20683;-74
2023/08/17 02:39:47;;;;;;;23.95;19.02;;;;;;;-145.68;100.00;73643.72;10452046;28;20645;-74
2023/08/17 02:44:48;;;;;;;25.23;20.17;;;;;;;-145.68;100.00;73651.72;10453455;28;20196;-74
2023/08/17 02:49:49;;;;;;;20.95;18.35;;;;;;;-145.68;100.00;73657.69;10452701;28;20219;-74
2023/08/17 02:54:50;;;;;;;21.27;15.65;;;;;;;-145.68;100.00;73639.72;10435253;28;20231;-73
2023/08/17 02:59:50;;;;;;;22.00;16.48;;;;;;;-145.68;100.00;73661.69;10452804;28;20321;-73
2023/08/17 03:04:50;;;;;;;15.40;13.80;;;;;;;-145.68;100.00;73637.72;10423625;28;20197;-73
2023/08/17 03:09:51;;;;;;;18.17;14.63;;;;;;;-145.68;100.00;73639.72;10404822;28;20185;-74
2023/08/17 03:14:52;;;;;;;18.65;14.50;;;;;;;-145.68;100.00;73647.72;10403113;28;20262;-74
2023/08/17 03:19:53;;;;;;;21.00;15.43;;;;;;;-145.68;100.00;73649.72;10403723;28;20189;-73
2023/08/17 03:24:55;;;;;;;19.55;14.65;;;;;;;-145.68;100.00;73659.69;10402707;28;20228;-74
2023/08/17 03:29:55;;;;;;;19.45;14.93;;;;;;;-145.68;100.00;73671.69;10402193;28;20220;-73
2023/08/17 03:34:56;;;;;;;18.27;15.98;;;;;;;-145.68;100.00;73671.69;10401448;28;20784;-75
2023/08/17 03:39:57;;;;;;;15.63;13.90;;;;;;;-145.68;100.00;73653.69;10401440;28;20665;-76
2023/08/17 03:44:58;;;;;;;16.40;14.38;;;;;;;-145.68;100.00;73649.72;10401667;28;20234;-75
2023/08/17 03:49:58;;;;;;;16.63;13.85;;;;;;;-145.68;100.00;73655.69;10400816;28;20205;-75
2023/08/17 03:54:59;;;;;;;15.68;14.00;;;;;;;-145.68;100.00;73647.72;10401143;28;20953;-75
2023/08/17 04:00:00;;;;;;;22.30;15.30;;;;;;;-145.68;100.00;73671.69;10427035;28;20278;-75
2023/08/17 04:05:01;;;;;;;18.88;15.75;;;;;;;-145.68;100.00;73659.69;10489554;28;20218;-75
2023/08/17 04:10:01;;;;;;;17.45;14.82;;;;;;;-145.68;100.00;73657.69;10490303;28;20215;-75
2023/08/17 04:15:01;;;;;;;15.05;13.50;;;;;;;-145.68;100.00;73647.72;10490592;28;20221;-74
2023/08/17 04:20:02;;;;;;;17.75;14.15;;;;;;;-145.68;100.00;73647.72;10490702;28;20654;-74
2023/08/17 04:25:03;;;;;;;16.58;12.73;;;;;;;-145.68;100.00;73623.72;10489171;28;20277;-74
2023/08/17 04:30:04;;;;;;;14.35;12.95;;;;;;;-145.68;100.00;73615.72;10489463;28;20179;-74
2023/08/17 04:35:12;;;;;;;20.05;13.57;;;;;;;-145.68;100.00;73637.72;10488947;28;20301;-74
2023/08/17 04:40:13;;;;;;;15.32;13.80;;;;;;;-145.68;100.00;73627.72;10489773;28;20553;-74
2023/08/17 04:45:14;;;;;;;13.60;12.20;;;;;;;-145.68;100.00;73619.72;10488567;28;20192;-74
2023/08/17 04:50:18;;;;;;;13.50;12.20;;;;;;;-145.68;100.00;73589.75;10489478;28;20734;-75
2023/08/17 04:55:18;;;;;;;15.05;12.88;;;;;;;-145.68;100.00;73589.75;10488908;28;20222;-74
2023/08/17 05:00:25;;;;;;;13.88;12.48;;;;;;;-145.68;100.00;73565.75;10488731;28;20575;-74
2023/08/17 05:05:26;;;;;;;15.30;11.52;;;;;;;-145.68;100.00;73533.78;10493593;28;20188;-74
2023/08/17 05:10:27;;;;;;;13.15;11.05;;;;;;;-145.68;100.00;73491.81;10454603;28;20188;-75
2023/08/17 05:15:27;;;;;;;12.10;10.18;;;;;;;-145.68;100.00;73461.81;10454127;28;20204;-74
2023/08/17 05:20:29;;;;;;;12.13;11.02;;;;;;;-145.68;100.00;73427.84;10454100;28;20180;-75
2023/08/17 05:25:29;;;;;;;11.50;9.77;;;;;;;-145.68;100.00;73385.88;10453075;28;20230;-74
2023/08/17 05:30:30;;;;;;;12.25;10.48;;;;;;;-145.68;100.00;73375.88;10453479;28;20180;-74
2023/08/17 05:35:30;;;;;;;11.85;10.70;;;;;;;-145.68;100.00;73351.88;10454093;28;20220;-74
2023/08/17 05:40:32;;;;;;;11.55;10.32;;;;;;;-145.68;100.00;73327.91;10454275;28;20245;-75
2023/08/17 05:45:36;;;;;;;9.80;8.82;;;;;;;-145.68;100.00;73225.97;10455281;28;20543;-74
2023/08/17 05:50:37;;;;;;;10.63;9.50;;;;;;;-145.68;100.00;73170.00;10454063;28;20184;-74
2023/08/17 05:55:37;;;;;;;9.60;8.63;;;;;;;-145.68;100.00;73094.06;10454489;28;20216;-74
2023/08/17 06:00:38;;;;;;;11.07;8.15;;;;;;;-145.68;100.00;73014.13;10455224;28;20701;-76
2023/08/17 06:05:39;;;;;;;8.43;7.50;;;;;;;-145.68;100.00;72888.22;10450994;28;20496;-75
2023/08/17 06:10:39;;;;;;;7.90;6.80;;;;;;;-145.68;95.76;72846.25;10450923;28;20190;-75
2023/08/17 06:15:40;;;;;;;10.27;7.30;;;;;;;-145.68;84.46;72818.25;10451972;28;20224;-74
2023/08/17 06:20:41;;;;;;;7.70;6.72;;;;;;;-145.68;87.19;72802.28;10453146;28;20206;-74
2023/08/17 06:25:41;;;;;;;11.23;9.55;;;;;;;-145.68;80.36;72738.31;10452703;28;20285;-74
2023/08/17 06:30:41;;;;;;;16.48;10.82;;;;;;;-145.68;82.45;72814.28;10452304;28;20482;-75
2023/08/17 06:35:42;;;;;;;12.70;11.38;;;;;;;-145.68;84.97;72824.25;10452949;28;20208;-75
2023/08/17 06:40:42;;;;;;;13.32;11.15;;;;;;;-145.68;83.15;72790.28;10452867;28;20935;-74
2023/08/17 06:45:42;;;;;;;13.75;12.30;;;;;;;-145.68;83.39;72798.28;10453607;28;20184;-74
2023/08/17 06:50:43;;;;;;;14.88;13.38;;;;;;;-145.68;83.72;72828.25;10451837;28;20719;-74
2023/08/17 06:55:43;;;;;;;17.35;14.70;;;;;;;-145.68;84.12;72844.25;10452434;28;20223;-75
2023/08/17 07:00:45;;;;;;;20.08;16.80;;;;;;;-145.68;95.26;72956.16;10492899;28;20200;-75
2023/08/17 07:05:45;;;;;;;19.25;17.10;;;;;;;-145.68;98.16;72910.19;10491986;28;20215;-75
2023/08/17 07:10:46;;;;;;;20.70;16.92;;;;;;;-145.68;91.58;72828.25;10491986;28;20624;-74
2023/08/17 07:15:46;;;;;;;17.92;15.63;;;;;;;-145.68;82.01;72732.34;10491494;28;20573;-75
2023/08/17 07:20:47;;;;;;;16.38;14.70;;;;;;;-145.68;76.72;72658.38;10490452;28;20187;-75
2023/08/17 07:25:48;;;;;;;17.67;15.40;;;;;;;-145.68;79.39;72700.34;10491328;28;20772;-75
2023/08/17 07:30:49;;;;;;;19.30;16.70;;;;;;;-145.68;78.28;72650.41;10491417;28;20191;-74
2023/08/17 07:35:49;;;;;;;25.80;19.10;;;;;;;-145.68;79.68;72718.34;10464251;28;20219;-73
2023/08/17 07:40:49;;;;;;;21.70;18.63;;;;;;;-145.68;83.13;72716.34;10451414;28;20265;-73
2023/08/17 07:45:57;;;;;;;20.00;17.98;;;;;;;-145.68;79.92;72676.38;10447263;28;20255;-73
2023/08/17 07:50:58;;;;;;;26.27;19.05;;;;;;;-145.68;79.78;72698.34;10446426;28;20191;-73
2023/08/17 07:55:58;;;;;;;23.55;17.30;;;;;;;-145.68;73.10;72532.50;10447289;28;20698;-75
2023/08/17 08:00:58;;;;;;;19.65;16.27;;;;;;;-145.68;65.05;72400.59;10447614;28;20196;-76
2023/08/17 08:05:59;;;;;;;19.42;15.73;;;;;;;-145.68;60.61;72338.66;10475368;28;20187;-74
2023/08/17 08:10:59;;;;;;;16.20;12.93;;;;;;;-145.68;59.27;72236.75;10490095;28;20199;-76
2023/08/17 08:16:00;;;;;;;13.70;12.40;;;;;;;-145.68;58.73;72232.75;10463517;28;20215;-75
2023/08/17 08:21:00;;;;;;;16.17;13.68;;;;;;;-145.68;55.93;72092.91;10486732;28;20191;-74
2023/08/17 08:26:01;;;;;;;17.17;13.43;;;;;;;-145.68;55.00;72152.84;10444232;28;20278;-75
2023/08/17 08:31:03;;;;;;;14.35;12.55;;;;;;;-145.68;52.85;72092.91;10458109;28;20199;-76
2023/08/17 08:36:03;;;;;;;16.73;14.48;;;;;;;-145.68;54.00;72166.81;10446310;28;20220;-76
2023/08/17 08:41:05;;;;;;;14.05;12.32;;;;;;;-145.68;55.37;72188.81;10454063;28;20191;-75
2023/08/17 08:46:05;;;;;;;12.07;10.88;;;;;;;-145.68;55.76;72082.91;10446221;28;20222;-75
2023/08/17 08:51:09;;;;;;;11.67;10.30;;;;;;;-145.68;52.19;71911.06;10445663;28;20213;-75
2023/08/17 08:56:12;;;;;;;11.68;8.90;;;;;;;-145.68;48.58;71751.22;10445108;28;20462;-74
2023/08/17 09:01:13;;;;;;;10.82;9.13;;;;;;;-145.68;45.33;71645.34;10444025;28;20187;-75
2023/08/17 09:06:14;;;;;;;11.82;10.63;;;;;;;-145.68;49.75;71945.03;10443502;28;20675;-76
2023/08/17 09:11:14;;;;;;;9.75;8.85;;;;;;;-145.68;49.05;71861.13;10444648;28;20218;-76
2023/08/17 09:16:15;;;;;;;10.33;8.03;;;;;;;-145.68;50.26;71873.09;10445405;28;20714;-75
2023/08/17 09:21:23;;;;;;;10.00;7.53;;;;;;;-145.68;44.41;71565.44;10471814;28;21232;-75
2023/08/17 09:26:23;;;;;;;8.80;7.05;;;;;;;-145.68;44.10;71565.44;10461141;28;20588;-75
2023/08/17 09:31:24;;;;;;;7.05;6.22;;;;;;;-145.68;44.38;71533.47;10474165;28;20204;-75
2023/08/17 09:36:25;;;;;;;11.00;6.47;;;;;;;-145.68;43.30;71495.50;10445994;28;20269;-74
2023/08/17 09:41:26;;;;;;;9.23;6.75;;;;;;;-145.68;44.11;71549.44;10447434;28;20188;-74
2023/08/17 09:46:27;;;;;;;7.00;6.25;;;;;;;-145.68;44.59;71569.44;10446772;28;20204;-74
2023/08/17 09:51:28;;;;;;;6.78;6.15;;;;;;;-145.68;43.61;71589.41;10450943;28;20195;-75
2023/08/17 09:56:28;;;;;;;8.98;6.30;;;;;;;-145.68;44.01;71525.47;10466464;28;20215;-74
2023/08/17 10:01:29;;;;;;;7.30;5.80;;;;;;;-145.68;43.41;71505.50;10494733;28;20183;-74
2023/08/17 10:06:30;;;;;;;5.85;5.20;;;;;;;-145.68;42.42;71427.59;10488394;28;20190;-74
2023/08/17 10:11:32;;;;;;;9.10;5.85;;;;;;;-145.68;40.87;71329.69;10451877;28;20196;-73
2023/08/17 10:16:44;;;;;;;7.97;5.30;;;;;;;-145.68;41.82;71363.66;10452908;28;20223;-74
2023/08/17 10:21:49;;;;;;;6.80;4.95;;;;;;;-145.68;41.29;71333.69;10440126;28;20197;-74
2023/08/17 10:26:56;;;;;;;8.82;5.85;;;;;;;-145.68;42.02;71449.56;10489612;28;20187;-75
2023/08/17 10:32:07;;;;;;;7.90;5.40;;;;;;;-145.68;43.06;71453.56;10473494;28;20207;-75
2023/08/17 10:37:09;;;;;;;8.10;5.88;;;;;;;-145.68;41.88;71391.63;10449725;28;20305;-74
2023/08/17 10:42:09;;;;;;;10.07;6.18;;;;;;;-145.68;41.81;71413.59;10453081;28;20873;-74
2023/08/17 10:47:20;;;;;;;6.80;5.60;;;;;;;-145.68;41.58;71411.59;10449626;28;20199;-74
2023/08/17 10:52:33;;;;;;;8.20;5.40;;;;;;;-145.68;42.64;71495.50;10450718;28;20442;-74
2023/08/17 10:57:37;;;;;;;6.65;5.68;;;;;;;-145.68;42.19;71433.56;10450462;28;20199;-74
2023/08/17 11:02:38;;;;;;;8.77;6.55;;;;;;;-145.68;42.35;71467.53;10467516;28;20199;-73
2023/08/17 11:07:43;;;;;;;8.90;5.53;;;;;;;-145.68;40.40;71251.78;10489812;28;20678;-74
2023/08/17 11:12:44;;;;;;;7.78;5.90;;;;;;;-145.68;42.38;71489.50;10472183;28;20278;-75
2023/08/17 11:17:44;;;;;;;10.20;6.18;;;;;;;-145.68;41.86;71489.50;10459175;28;20195;-75
2023/08/17 11:22:46;;;;;;;7.22;5.63;;;;;;;-145.68;41.25;71445.56;10492197;28;20571;-74
2023/08/17 11:27:46;;;;;;;7.30;4.97;;;;;;;-145.68;37.97;71397.63;10492009;28;20199;-75
2023/08/17 11:32:52;;;;;;;8.15;5.50;;;;;;;-145.68;36.87;71319.72;10473679;28;20990;-75
2023/08/17 11:37:52;;;;;;;8.48;5.30;;;;;;;-145.68;38.39;71525.47;10468200;28;20585;-74
2023/08/17 11:42:53;;;;;;;9.38;5.07;;;;;;;-145.68;38.76;71495.50;10491056;28;20195;-75
2023/08/17 11:47:53;;;;;;;8.77;5.50;;;;;;;-145.68;38.59;71649.34;10489784;28;20233;-75
2023/08/17 11:52:54;;;;;;;7.00;5.32;;;;;;;-145.68;39.44;71647.34;10469503;28;20770;-75
2023/08/17 11:57:54;;;;;;;10.18;6.15;;;;;;;-145.68;39.02;71595.41;10448233;28;20249;-74
2023/08/17 12:02:54;;;;;;;6.53;5.70;;;;;;;-145.68;37.91;71567.44;10449945;28;20644;-74
2023/08/17 12:07:55;;;;;;;6.63;5.28;;;;;;;-145.68;37.49;71493.50;10448149;28;20794;-74
2023/08/17 12:12:58;;;;;;;10.15;6.25;;;;;;;-145.68;39.93;71741.25;10447058;28;20211;-74
2023/08/17 12:18:01;;;;;;;7.78;5.15;;;;;;;-145.68;38.66;71589.41;10442178;28;20228;-74
2023/08/17 12:23:02;;;;;;;10.55;5.85;;;;;;;-145.68;38.32;71549.44;10453782;28;20243;-74
2023/08/17 12:28:03;;;;;;;7.30;5.80;;;;;;;-145.68;39.77;71653.34;10447154;28;20543;-74
2023/08/17 12:33:05;;;;;;;6.43;5.68;;;;;;;-145.68;37.71;71611.38;10452126;28;20580;-74
2023/08/17 12:38:05;;;;;;;9.15;7.18;;;;;;;-145.68;39.79;71659.34;10474228;28;20203;-74
2023/08/17 12:43:06;;;;;;;6.45;5.65;;;;;;;-145.68;37.79;71549.44;10446504;28;20192;-75
2023/08/17 12:48:07;;;;;;;7.00;5.90;;;;;;;-145.68;39.00;71673.31;10446215;28;20566;-74
2023/08/17 12:53:07;;;;;;;8.20;5.55;;;;;;;-145.68;37.33;71417.59;10445068;28;20329;-75
2023/08/17 12:58:08;;;;;;;8.00;5.80;;;;;;;-145.68;36.87;71459.53;10445755;28;20196;-74
2023/08/17 13:03:09;;;;;;;8.75;6.38;;;;;;;-145.68;38.64;71577.41;10446330;28;20442;-74
2023/08/17 13:08:10;;;;;;;7.50;6.03;;;;;;;-145.68;36.68;71383.63;10443962;28;20218;-75
2023/08/17 13:13:11;;;;;;;7.80;6.70;;;;;;;-145.68;38.27;71507.50;10469831;28;20835;-74
2023/08/17 13:18:11;;;;;;;11.85;6.20;;;;;;;-145.68;39.33;71573.41;10446455;28;20192;-75
2023/08/17 13:23:12;;;;;;;7.20;5.43;;;;;;;-145.68;39.74;71553.44;10445328;28;20597;-75
2023/08/17 13:28:12;;;;;;;8.23;6.20;;;;;;;-145.68;39.76;71543.44;10454610;28;20462;-74
2023/08/17 13:33:13;;;;;;;11.82;6.88;;;;;;;-145.68;39.31;71545.44;10453967;28;20226;-74
2023/08/17 13:38:13;;;;;;;9.73;6.47;;;;;;;-145.68;37.90;71447.56;10454225;28;20769;-74
2023/08/17 13:43:13;;;;;;;8.60;6.50;;;;;;;-145.68;38.29;71461.53;10487736;28;20199;-74
2023/08/17 13:48:14;;;;;;;8.90;6.25;;;;;;;-145.68;37.30;71453.56;10460430;28;20219;-75
2023/08/17 13:53:14;;;;;;;9.27;5.88;;;;;;;-145.68;34.96;71145.91;10451883;28;20222;-75
2023/08/17 13:58:15;;;;;;;8.35;5.80;;;;;;;-145.68;33.46;71157.91;10452783;28;20188;-73
2023/08/17 14:03:15;;;;;;;7.63;5.20;;;;;;;-145.68;34.81;71048.03;10453720;28;20196;-74
2023/08/17 14:08:16;;;;;;;9.70;5.50;;;;;;;-145.68;35.02;71129.94;10452882;28;20197;-74
2023/08/17 14:13:16;;;;;;;7.05;5.40;;;;;;;-145.68;37.86;71307.72;10452531;28;20477;-74
2023/08/17 14:18:17;;;;;;;7.03;6.00;;;;;;;-145.68;39.49;71443.56;10437810;28;20207;-74
2023/08/17 14:23:38;;;;;;;7.68;5.72;;;;;;;-145.68;40.01;71473.53;10427743;28;20944;-84
2023/08/17 14:28:54;;;;;;;12.52;5.80;;;;;;;-145.68;38.47;71369.66;10444692;28;20208;-83
2023/08/17 14:33:57;;;;;;;6.30;5.05;;;;;;;-145.68;39.11;71413.59;10452481;28;20180;-82
2023/08/17 14:39:03;;;;;;;6.00;5.40;;;;;;;-145.68;40.23;71443.56;10452871;28;20184;-81
2023/08/17 14:44:06;;;;;;;12.00;6.03;;;;;;;-145.68;39.21;71419.59;10454081;28;20702;-82
2023/08/17 14:49:06;;;;;;;6.72;4.90;;;;;;;-145.68;40.36;71567.44;10452453;28;20214;-82
2023/08/17 14:54:08;;;;;;;6.20;5.40;;;;;;;-145.68;41.51;71645.34;10453433;28;20279;-81
2023/08/17 14:59:11;;;;;;;10.73;5.85;;;;;;;-145.68;41.49;71655.34;10451827;28;20192;-82
2023/08/17 15:04:14;;;;;;;9.10;5.78;;;;;;;-145.68;41.01;71539.47;10452148;28;20321;-82
2023/08/17 15:09:15;;;;;;;10.70;5.70;;;;;;;-145.68;40.99;71567.44;10452633;28;20188;-82
2023/08/17 15:14:15;;;;;;;9.98;5.95;;;;;;;-145.68;43.37;71657.34;10452733;28;20660;-81
2023/08/17 15:19:18;;;;;;;8.02;5.53;;;;;;;-145.68;43.37;71639.34;10452387;28;20195;-83
2023/08/17 15:24:24;;;;;;;8.30;5.60;;;;;;;-145.68;42.01;71585.41;10451917;28;20262;-82
2023/08/17 15:29:25;;;;;;;5.97;4.88;;;;;;;-145.68;40.32;71401.63;10452143;28;21007;-82
2023/08/17 15:34:26;;;;;;;12.98;6.00;;;;;;;-145.68;41.14;71465.53;10432337;28;20188;-82
2023/08/17 15:39:26;;;;;;;10.48;5.68;;;;;;;-145.68;41.49;71531.47;10431558;28;20651;-81
2023/08/17 15:44:27;;;;;;;9.50;5.65;;;;;;;-145.68;42.23;71561.44;10449580;28;20207;-82
2023/08/17 15:49:27;;;;;;;11.55;7.60;;;;;;;-145.68;42.99;71605.38;10449818;28;20223;-82
2023/08/17 15:54:28;;;;;;;8.38;5.90;;;;;;;-145.68;43.08;71591.41;10449040;28;20195;-82
2023/08/17 15:59:28;;;;;;;9.60;6.50;;;;;;;-145.68;42.87;71623.38;10449643;28;20195;-82
2023/08/17 16:04:29;;;;;;;11.43;6.07;;;;;;;-145.68;43.12;71641.34;10450259;28;20265;-83
2023/08/17 16:09:35;;;;;;;7.40;6.07;;;;;;;-145.68;45.40;71749.22;10449188;28;20192;-83
2023/08/17 16:14:43;;;;;;;11.10;6.55;;;;;;;-145.68;47.76;71853.13;10450256;28;20286;-83
2023/08/17 16:19:48;;;;;;;10.15;6.20;;;;;;;-145.68;48.76;71945.03;10450653;28;20302;-83
2023/08/17 16:24:51;;;;;;;10.40;6.70;;;;;;;-145.68;49.43;71987.00;10490348;28;20231;-82
2023/08/17 16:29:55;;;;;;;7.22;6.53;;;;;;;-145.68;50.81;72024.97;10491306;28;20244;-83
2023/08/17 16:34:58;;;;;;;7.60;6.38;;;;;;;-145.68;51.02;72008.97;10463231;28;20566;-83
2023/08/17 16:40:00;;;;;;;8.23;6.78;;;;;;;-145.68;52.31;72034.94;10446599;28;20184;-83
2023/08/17 16:45:00;;;;;;;15.95;7.55;;;;;;;-145.68;56.21;72176.81;10448282;28;20294;-82
2023/08/17 16:50:03;;;;;;;27.90;10.65;;;;;;;-145.68;58.90;72216.78;10447431;28;20210;-82
2023/08/17 16:55:10;;;;;;;9.40;7.47;;;;;;;-145.68;61.94;72282.72;10448778;28;20196;-82
2023/08/17 17:00:11;;;;;;;19.13;9.98;;;;;;;-145.68;64.70;72320.69;10449505;28;20180;-82
2023/08/17 17:05:14;;;;;;;9.50;8.32;;;;;;;-145.68;66.40;72358.66;10447727;28;20234;-83
2023/08/17 17:10:15;;;;;;;9.50;7.65;;;;;;;-145.68;66.26;72362.66;10479997;28;20223;-82
2023/08/17 17:15:20;;;;;;;8.68;7.75;;;;;;;-145.68;65.51;72334.66;10489243;28;20187;-82
2023/08/17 17:20:23;;;;;;;9.32;8.18;;;;;;;-145.68;65.78;72374.63;10449189;28;20188;-82
2023/08/17 17:25:30;;;;;;;11.75;8.40;;;;;;;-145.68;69.08;72394.63;10449110;28;20242;-82
2023/08/17 17:30:34;;;;;;;10.15;7.80;;;;;;;-145.68;70.91;72396.63;10448500;28;20198;-83
2023/08/17 17:35:39;;;;;;;9.57;7.28;;;;;;;-145.68;70.97;72414.59;10448155;28;20566;-82
2023/08/17 17:40:48;;;;;;;11.00;8.27;;;;;;;-145.68;72.60;72476.53;10448486;28;20196;-82
2023/08/17 17:45:52;;;;;;;13.68;9.18;;;;;;;-145.68;77.59;72518.50;10447213;28;20227;-82
2023/08/17 17:50:57;;;;;;;12.80;9.85;;;;;;;-145.68;76.86;72536.50;10448287;28;20195;-83
2023/08/17 17:56:02;;;;;;;16.35;11.05;;;;;;;-145.68;74.69;72534.50;10450406;28;20195;-82
2023/08/17 18:01:03;;;;;;;14.88;11.63;;;;;;;-145.68;74.38;72564.47;10451560;28;20184;-82
2023/08/17 18:06:15;;;;;;;16.85;11.75;;;;;;;-145.68;74.21;72584.44;10452200;28;20707;-82
2023/08/17 18:11:23;;;;;;;14.95;11.65;;;;;;;-145.68;75.95;72598.44;10450947;28;20664;-82
2023/08/17 18:16:23;;;;;;;11.75;10.48;;;;;;;-145.68;76.54;72598.44;10449640;28;20184;-83
2023/08/17 18:21:24;;;;;;;16.58;11.40;;;;;;;-145.68;76.54;72608.44;10450638;28;20203;-82
2023/08/17 18:26:28;;;;;;;16.52;11.32;;;;;;;-145.68;77.70;72620.41;10413252;28;1112935;-83
2023/08/17 18:31:40;;;;;;;11.90;10.68;;;;;;;-145.68;77.89;72622.41;10451260;28;20200;-84
2023/08/17 18:36:53;;;;;;;13.88;11.02;;;;;;;-145.68;79.03;72638.41;10451533;28;20542;-82
2023/08/17 18:41:56;;;;;;;20.48;10.43;;;;;;;-145.68;81.62;72672.38;10412349;28;20295;-83
2023/08/17 18:47:04;;;;;;;14.20;11.57;;;;;;;-145.68;83.45;72696.34;10415437;28;20216;-82
2023/08/17 18:52:11;;;;;;;14.38;11.52;;;;;;;-145.68;81.86;72698.34;10450688;28;20267;-82
2023/08/17 18:57:14;;;;;;;18.33;11.52;;;;;;;-145.68;84.35;72720.34;10450251;28;20188;-83
2023/08/17 19:02:15;;;;;;;14.25;10.80;;;;;;;-145.68;84.92;72730.34;10451947;28;20647;-82
2023/08/17 19:07:16;;;;;;;11.45;9.65;;;;;;;-145.68;81.35;72712.34;10450613;28;20215;-82
2023/08/17 19:12:21;;;;;;;15.50;9.40;;;;;;;-145.68;79.24;72722.34;10450037;28;20687;-82
2023/08/17 19:17:23;;;;;;;11.07;9.52;;;;;;;-145.68;76.34;72712.34;10450761;28;20196;-82
2023/08/17 19:22:25;;;;;;;9.60;8.70;;;;;;;-145.68;76.29;72706.34;10447633;28;20238;-82
2023/08/17 19:27:35;;;;;;;11.98;8.90;;;;;;;-145.68;76.93;72720.34;10449632;28;20573;-82
2023/08/17 19:32:38;;;;;;;9.85;8.68;;;;;;;-145.68;78.02;72740.31;10450110;28;20531;-82
2023/08/17 19:37:38;;;;;;;19.02;9.25;;;;;;;-145.68;79.98;72772.31;10448720;28;20249;-82
2023/08/17 19:42:48;;;;;;;9.55;8.68;;;;;;;-145.68;77.95;72752.31;10409253;28;20316;-82
2023/08/17 19:47:48;;;;;;;9.27;7.70;;;;;;;-145.68;74.97;72722.34;10409153;28;20307;-82
2023/08/17 19:52:49;;;;;;;6.38;5.70;;;;;;;-145.68;67.77;72674.38;10408983;28;20667;-81
2023/08/17 19:57:49;;;;;;;5.50;5.00;;;;;;;-145.68;62.79;72642.41;10408621;28;20192;-81
2023/08/17 20:02:50;;;;;;;6.75;4.75;;;;;;;-145.68;61.73;72640.41;10408349;28;20289;-81
2023/08/17 20:07:50;;;;;;;6.43;5.30;;;;;;;-145.68;62.50;72648.41;10407011;28;20664;-78
2023/08/17 20:12:51;;;;;;;5.78;5.28;;;;;;;-145.68;64.29;72652.41;10407308;28;20201;-78
2023/08/17 20:17:51;;;;;;;5.47;4.97;;;;;;;-145.68;64.66;72664.38;10406652;28;20212;-78
2023/08/17 20:22:51;;;;;;;8.13;5.13;;;;;;;-145.68;64.85;72662.38;10405161;28;20593;-78
2023/08/17 20:27:52;;;;;;;7.18;4.93;;;;;;;-145.68;64.72;72688.38;10406928;28;20200;-78
2023/08/17 20:32:52;;;;;;;6.22;5.10;;;;;;;-145.68;64.84;72696.34;10407168;28;20196;-78
2023/08/17 20:37:52;;;;;;;6.07;5.30;;;;;;;-145.68;63.67;72702.34;10406701;28;20200;-78
2023/08/17 20:42:53;;;;;;;4.95;4.25;;;;;;;-145.68;64.01;72704.34;10405126;28;20295;-81
2023/08/17 20:47:53;;;;;;;7.43;4.97;;;;;;;-145.68;64.28;72700.34;10406155;28;20212;-81
2023/08/17 20:52:54;;;;;;;8.77;5.32;;;;;;;-145.68;65.80;72714.34;10406053;28;20193;-81
2023/08/17 20:57:54;;;;;;;5.82;5.10;;;;;;;-145.68;65.96;72716.34;10404972;28;20576;-81
2023/08/17 21:02:55;;;;;;;6.80;5.43;;;;;;;-145.68;66.47;72724.34;10407455;28;20197;-81
2023/08/17 21:07:56;;;;;;;6.00;5.40;;;;;;;-145.68;67.05;72730.34;10407353;28;20193;-82
2023/08/17 21:12:57;;;;;;;7.35;5.40;;;;;;;-145.68;67.43;72728.34;10406473;28;20188;-81
2023/08/17 21:17:58;;;;;;;5.90;5.28;;;;;;;-145.68;68.30;72732.34;10407139;28;20192;-81
2023/08/17 21:22:58;;;;;;;7.72;5.80;;;;;;;-145.68;69.87;72746.31;10406498;28;20307;-81
2023/08/17 21:27:58;;;;;;;5.80;5.15;;;;;;;-145.68;69.84;72736.31;10407961;28;20196;-81
2023/08/17 21:32:59;;;;;;;6.70;5.97;;;;;;;-145.68;70.21;72736.31;10407008;28;20595;-81
2023/08/17 21:37:59;;;;;;;7.00;6.00;;;;;;;-145.68;70.63;72732.34;10406220;28;20184;-81
2023/08/17 21:43:00;;;;;;;8.77;5.85;;;;;;;-145.68;70.90;72740.31;10465881;28;20647;-81
2023/08/17 21:48:00;;;;;;;8.02;5.82;;;;;;;-145.68;71.55;72754.31;10493739;28;20278;-81
2023/08/17 21:53:01;;;;;;;7.65;5.45;;;;;;;-145.68;70.80;72742.31;10497297;28;20264;-81
2023/08/17 21:58:01;;;;;;;5.90;5.30;;;;;;;-145.68;71.30;72758.31;10495883;28;20248;-81
2023/08/17 22:03:04;;;;;;;7.30;6.10;;;;;;;-145.68;71.21;72776.28;10495491;28;20195;-81
2023/08/17 22:08:07;;;;;;;10.02;6.22;;;;;;;-145.68;73.00;72802.28;10494343;28;20190;-81
2023/08/17 22:13:07;;;;;;;6.72;5.57;;;;;;;-145.68;73.01;72806.28;10495102;28;20195;-82
2023/08/17 22:18:08;;;;;;;6.07;5.47;;;;;;;-145.68;74.77;72834.25;10496289;28;20194;-82
2023/08/17 22:23:20;;;;;;;6.15;5.60;;;;;;;-145.68;75.63;72850.25;10495419;28;20227;-79
2023/08/17 22:28:28;;;;;;;11.82;6.18;;;;;;;-145.68;78.16;72878.22;10496317;28;20701;-79
2023/08/17 22:33:36;;;;;;;9.57;5.78;;;;;;;-145.68;80.06;72894.22;10495683;28;20545;-80